Time;durP1;ratioP1;P1;durP2;ratioP2;P2;SDS_P1;SDS_P2;PMS_P1;PMS_P2;Temp;Humidity;BMP_temperature;BMP_pressure;BME280_temperature;BME280_humidity;BME280_pressure;Samples;Min_cycle;Max_cycle;Signal;HPM_P1;HPM_P2
2022/11/18 00:01:06;;;;;;;9.90;5.35;;;;;;;;;;4992720;28;20039;-82
2022/11/18 00:03:32;;;;;;;8.13;4.75;;;;;;;7.59;100.00;67617.88;4990828;28;20050;-82
2022/11/18 00:05:57;;;;;;;10.57;5.00;;;;;;;;;;4989062;28;20046;-82
2022/11/18 00:08:23;;;;;;;12.30;5.28;;;;;;;;;;4992664;28;20046;-82
2022/11/18 00:10:48;;;;;;;13.52;5.22;;;;;;;7.56;100.00;67609.19;4990371;28;20446;-82
2022/11/18 00:16:04;;;;;;;12.82;5.38;;;;;;;7.53;100.00;67605.81;4984530;28;20525;-82
2022/11/18 00:18:29;;;;;;;10.05;5.00;;;;;;;7.52;100.00;67609.41;5005512;28;20042;-82
2022/11/18 00:20:54;;;;;;;8.50;5.05;;;;;;;;;;4989687;28;20536;-82
2022/11/18 00:23:20;;;;;;;10.38;5.65;;;;;;;7.47;100.00;67604.88;4990479;28;20732;-82
2022/11/18 00:25:45;;;;;;;9.95;5.25;;;;;;;7.49;100.00;67601.28;4982920;28;20490;-81
2022/11/18 00:28:10;;;;;;;12.27;5.70;;;;;;;7.53;100.00;67613.19;4988851;28;20050;-81
2022/11/18 00:30:36;;;;;;;9.65;4.85;;;;;;;7.51;100.00;67602.97;4995827;28;20043;-82
2022/11/18 00:33:01;;;;;;;14.02;5.43;;;;;;;7.52;100.00;67609.97;4987980;28;20062;-82
2022/11/18 00:35:26;;;;;;;9.57;5.45;;;;;;;;;;4989825;28;20038;-82
2022/11/18 00:37:51;;;;;;;12.38;5.38;;;;;;;;;;5001744;28;20704;-82
2022/11/18 00:40:17;;;;;;;12.07;5.18;;;;;;;7.59;100.00;67612.03;4988787;28;20050;-83
2022/11/18 00:42:51;;;;;;;10.13;4.85;;;;;;;7.63;100.00;67616.56;4981253;28;20273;-82
2022/11/18 00:45:18;;;;;;;11.10;5.63;;;;;;;7.68;100.00;67627.50;4985707;28;20038;-82
2022/11/18 00:47:43;;;;;;;10.85;5.05;;;;;;;;;;4988153;28;20082;-82
2022/11/18 00:50:09;;;;;;;10.05;5.05;;;;;;;7.75;100.00;67630.16;4987996;28;20537;-82
2022/11/18 00:52:34;;;;;;;11.35;4.57;;;;;;;;;;4990627;28;20042;-82
2022/11/18 00:55:00;;;;;;;10.80;4.72;;;;;;;7.84;100.00;67640.34;4993985;28;20041;-81
2022/11/18 00:57:25;;;;;;;11.25;5.07;;;;;;;;;;4994879;28;20038;-83
2022/11/18 00:59:50;;;;;;;13.73;5.03;;;;;;;7.93;100.00;67649.41;4997679;28;20141;-80
2022/11/18 01:02:15;;;;;;;10.75;5.63;;;;;;;;;;5010675;28;20284;-82
2022/11/18 01:04:40;;;;;;;10.75;5.70;;;;;;;;;;4991246;28;20093;-81
2022/11/18 01:07:06;;;;;;;9.73;5.35;;;;;;;8.03;100.00;67668.69;5004186;28;20045;-81
2022/11/18 01:09:31;;;;;;;9.45;4.72;;;;;;;;;;5007776;28;20034;-79
2022/11/18 01:14:40;;;;;;;10.45;5.18;;;;;;;8.09;100.00;67667.50;4992084;28;20049;-81
2022/11/18 01:17:05;;;;;;;8.05;4.63;;;;;;;8.11;100.00;67669.75;4998054;28;20034;-80
2022/11/18 01:19:31;;;;;;;11.40;5.38;;;;;;;8.11;100.00;67669.75;5000007;28;20102;-82
2022/11/18 01:22:01;;;;;;;9.88;5.13;;;;;;;;;;4997625;28;20043;-81
2022/11/18 01:24:27;;;;;;;8.63;5.10;;;;;;;;;;5002535;28;20062;-80
2022/11/18 01:26:52;;;;;;;9.50;5.07;;;;;;;;;;5014583;28;20461;-83
2022/11/18 01:29:17;;;;;;;7.68;4.75;;;;;;;8.11;100.00;67675.06;5006634;28;20098;-80
2022/11/18 01:31:42;;;;;;;8.30;5.00;;;;;;;;;;4990396;28;20038;-81
2022/11/18 01:34:08;;;;;;;8.18;4.80;;;;;;;;;;4996372;28;20073;-84
2022/11/18 01:36:33;;;;;;;12.55;4.90;;;;;;;;;;5001252;28;20050;-82
2022/11/18 01:38:59;;;;;;;12.18;5.97;;;;;;;7.97;100.00;67659.22;5005666;28;20058;-81
2022/11/18 01:41:25;;;;;;;10.65;5.95;;;;;;;;;;4999789;28;20084;-82
2022/11/18 01:43:55;;;;;;;10.40;5.72;;;;;;;7.96;100.00;67652.78;4992778;28;20105;-85
2022/11/18 01:46:21;;;;;;;10.75;5.68;;;;;;;;;;4999782;28;20042;-80
2022/11/18 01:48:48;;;;;;;13.45;6.22;;;;;;;;;;5000277;28;20042;-79
2022/11/18 01:51:16;;;;;;;11.45;6.15;;;;;;;7.85;100.00;67641.47;4999799;28;20047;-81
2022/11/18 01:53:50;;;;;;;13.45;6.05;;;;;;;7.84;100.00;67640.34;4999339;28;20046;-81
2022/11/18 01:56:25;;;;;;;10.18;5.72;;;;;;;7.84;100.00;67640.34;4999150;28;20096;-83
2022/11/18 01:58:56;;;;;;;12.82;5.97;;;;;;;;;;5000263;28;20466;-80
2022/11/18 02:01:21;;;;;;;14.40;6.15;;;;;;;;;;4997254;28;20042;-84
2022/11/18 02:03:48;;;;;;;14.65;6.80;;;;;;;7.83;100.00;67644.50;5017585;28;20077;-83
2022/11/18 02:06:14;;;;;;;8.18;5.78;;;;;;;7.85;100.00;67646.78;5000187;28;20042;-84
2022/11/18 02:08:40;;;;;;;13.65;6.68;;;;;;;7.87;100.00;67643.16;5007378;28;20038;-84
2022/11/18 02:11:09;;;;;;;12.07;5.95;;;;;;;;;;5019802;28;20049;-85
2022/11/18 02:13:34;;;;;;;10.73;6.28;;;;;;;;;;5012451;28;20041;-80
2022/11/18 02:16:05;;;;;;;12.30;6.53;;;;;;;;;;4997292;28;20042;-80
2022/11/18 02:18:54;;;;;;;14.02;6.57;;;;;;;7.87;100.00;67649.03;4995720;28;20490;-80
2022/11/18 02:22:00;;;;;;;11.10;6.53;;;;;;;7.83;100.00;67644.50;4996178;28;20047;-81
2022/11/18 02:25:04;;;;;;;13.75;6.57;;;;;;;7.82;100.00;67643.34;4991357;28;20042;-84
2022/11/18 02:27:32;;;;;;;12.05;6.78;;;;;;;;;;4991269;28;20057;-81
2022/11/18 02:30:03;;;;;;;10.07;6.30;;;;;;;7.84;100.00;67640.34;4988946;28;20023;-81
2022/11/18 02:32:33;;;;;;;11.45;6.60;;;;;;;7.83;100.00;67644.50;4980249;28;20133;-81
2022/11/18 02:35:37;;;;;;;18.17;7.78;;;;;;;7.84;100.00;67645.63;4983692;28;20042;-82
2022/11/18 02:38:10;;;;;;;11.63;7.15;;;;;;;7.83;100.00;67639.22;4942509;28;20042;-82
2022/11/18 02:40:41;;;;;;;15.52;7.97;;;;;;;7.83;100.00;67643.94;4971892;28;20524;-81
2022/11/18 02:43:12;;;;;;;10.73;7.50;;;;;;;7.84;100.00;67645.06;4985190;28;20051;-81
2022/11/18 02:45:40;;;;;;;13.30;7.03;;;;;;;7.85;100.00;67646.78;4995879;28;20131;-82
2022/11/18 02:48:09;;;;;;;12.67;7.30;;;;;;;7.85;100.00;67641.47;4989148;28;20046;-83
2022/11/18 02:50:35;;;;;;;20.63;7.82;;;;;;;;;;4988743;28;20320;-80
2022/11/18 02:53:02;;;;;;;16.13;7.28;;;;;;;;;;4999606;28;20505;-81
2022/11/18 02:55:33;;;;;;;13.70;7.63;;;;;;;7.90;100.00;67652.41;4993534;28;20042;-81
2022/11/18 02:57:59;;;;;;;13.60;7.65;;;;;;;;;;4977595;28;20121;-81
2022/11/18 03:00:24;;;;;;;11.27;6.80;;;;;;;7.95;100.00;67656.97;4984572;28;20048;-82
2022/11/18 03:02:50;;;;;;;12.10;6.03;;;;;;;7.97;100.00;67651.84;4996556;28;20102;-83
2022/11/18 03:05:25;;;;;;;11.25;7.03;;;;;;;7.98;100.00;67655.06;4997932;28;20042;-82
2022/11/18 03:07:55;;;;;;;12.40;6.07;;;;;;;8.03;100.00;67660.72;4997963;28;20065;-81
2022/11/18 03:10:24;;;;;;;11.60;6.43;;;;;;;8.05;100.00;67663.53;4998993;28;20045;-80
2022/11/18 03:13:11;;;;;;;11.65;6.10;;;;;;;;;;4996541;28;20038;-80
2022/11/18 03:16:02;;;;;;;11.05;6.32;;;;;;;;;;4992674;28;20061;-82
2022/11/18 03:18:39;;;;;;;12.75;6.65;;;;;;;8.08;100.00;67672.22;4987877;28;20065;-82
2022/11/18 03:21:07;;;;;;;13.15;6.28;;;;;;;;;;4991822;28;20065;-81
2022/11/18 03:24:06;;;;;;;13.63;6.47;;;;;;;8.10;100.00;67674.50;4991744;28;20046;-83
2022/11/18 03:26:37;;;;;;;12.20;5.70;;;;;;;8.12;100.00;67676.22;4947008;28;20038;-83
2022/11/18 03:29:13;;;;;;;12.55;6.45;;;;;;;8.15;100.00;67679.59;5002971;28;20046;-81
2022/11/18 03:32:03;;;;;;;11.55;5.68;;;;;;;8.15;100.00;67679.59;4986996;28;20106;-82
2022/11/18 03:34:30;;;;;;;10.32;6.32;;;;;;;8.13;100.00;67672.59;4987295;28;20042;-84
2022/11/18 03:36:57;;;;;;;10.82;6.38;;;;;;;;;;4991939;28;20034;-82
2022/11/18 03:39:24;;;;;;;13.02;7.00;;;;;;;;;;4999813;28;20045;-81
2022/11/18 03:41:54;;;;;;;11.60;6.78;;;;;;;8.14;100.00;67679.03;4993630;28;20040;-80
2022/11/18 03:44:25;;;;;;;13.50;7.00;;;;;;;8.15;100.00;67674.31;5002786;28;20129;-81
2022/11/18 03:47:01;;;;;;;11.30;6.40;;;;;;;;;;4994599;28;20039;-81
2022/11/18 03:49:49;;;;;;;13.07;6.43;;;;;;;8.10;100.00;67673.94;4991909;28;20062;-80
2022/11/18 03:52:20;;;;;;;12.38;7.07;;;;;;;8.07;100.00;67670.53;4959696;28;20070;-81
2022/11/18 03:54:47;;;;;;;12.77;7.18;;;;;;;;;;4988449;28;20107;-81
2022/11/18 03:57:14;;;;;;;12.13;7.43;;;;;;;;;;4989072;28;20039;-81
2022/11/18 04:00:02;;;;;;;10.73;6.53;;;;;;;8.06;100.00;67669.41;4989762;28;20042;-81
2022/11/18 04:02:28;;;;;;;12.68;7.28;;;;;;;;;;4987456;28;20046;-82
2022/11/18 04:04:56;;;;;;;15.68;7.47;;;;;;;8.03;100.00;67655.97;5005542;28;20097;-81
2022/11/18 04:07:27;;;;;;;12.57;7.72;;;;;;;;;;4995905;28;20100;-82
2022/11/18 04:09:57;;;;;;;11.85;6.68;;;;;;;;;;5004037;28;20129;-82
2022/11/18 04:12:24;;;;;;;11.77;7.45;;;;;;;;;;4992730;28;20026;-82
2022/11/18 04:14:54;;;;;;;14.93;8.05;;;;;;;;;;4998676;28;20042;-81
2022/11/18 04:17:21;;;;;;;13.82;8.50;;;;;;;8.01;100.00;67666.97;4987384;28;20093;-81
2022/11/18 04:19:47;;;;;;;15.75;8.93;;;;;;;8.00;100.00;67657.31;4990850;28;20042;-82
2022/11/18 04:22:13;;;;;;;14.40;8.70;;;;;;;;;;4993754;28;20038;-81
2022/11/18 04:24:38;;;;;;;18.83;8.48;;;;;;;7.95;100.00;67652.22;4991035;28;20093;-82
2022/11/18 04:27:04;;;;;;;14.75;9.05;;;;;;;;;;4990117;28;20104;-80
2022/11/18 04:29:30;;;;;;;13.27;8.50;;;;;;;;;;4988806;28;20394;-81
2022/11/18 04:31:55;;;;;;;14.07;9.20;;;;;;;;;;4989957;28;20046;-80
2022/11/18 04:34:21;;;;;;;13.80;9.60;;;;;;;7.97;100.00;67653.91;4989391;28;20058;-80
2022/11/18 04:36:46;;;;;;;17.10;10.27;;;;;;;7.94;100.00;67650.53;4993409;28;20556;-81
2022/11/18 04:39:11;;;;;;;15.30;10.07;;;;;;;7.94;100.00;67650.53;4988705;28;20536;-80
2022/11/18 04:41:54;;;;;;;14.48;10.20;;;;;;;;;;4988241;28;20034;-80
2022/11/18 04:44:31;;;;;;;23.70;10.68;;;;;;;7.90;100.00;67651.84;4970115;28;20046;-80
2022/11/18 04:46:58;;;;;;;17.92;11.05;;;;;;;7.91;100.00;67648.28;4994376;28;20061;-81
2022/11/18 04:49:24;;;;;;;17.60;10.93;;;;;;;;;;5005204;28;20545;-80
2022/11/18 04:51:50;;;;;;;17.52;10.35;;;;;;;7.92;100.00;67648.84;4990045;28;20050;-80
2022/11/18 04:54:16;;;;;;;16.75;10.82;;;;;;;;;;4989411;28;20046;-81
2022/11/18 04:56:42;;;;;;;15.25;9.45;;;;;;;;;;4984215;28;20031;-81
2022/11/18 04:59:08;;;;;;;15.55;10.75;;;;;;;7.94;100.00;67651.09;4981437;28;20042;-81
2022/11/18 05:01:33;;;;;;;16.35;10.38;;;;;;;;;;4990488;28;20169;-82
2022/11/18 05:04:00;;;;;;;18.05;11.63;;;;;;;7.94;100.00;67656.41;4990362;28;20133;-81
2022/11/18 05:06:26;;;;;;;21.10;12.15;;;;;;;7.93;100.00;67655.25;4990106;28;20049;-80
2022/11/18 05:08:52;;;;;;;16.98;10.68;;;;;;;7.94;100.00;67650.53;4989640;28;20445;-80
2022/11/18 05:14:00;;;;;;;20.13;11.68;;;;;;;;;;4989622;28;20394;-81
2022/11/18 05:16:26;;;;;;;19.58;12.35;;;;;;;;;;4987225;28;20043;-81
2022/11/18 05:18:51;;;;;;;19.83;11.48;;;;;;;;;;4989493;28;20057;-81
2022/11/18 05:21:18;;;;;;;19.00;12.10;;;;;;;7.90;100.00;67652.41;4987944;28;20034;-81
2022/11/18 05:23:43;;;;;;;18.80;12.30;;;;;;;;;;4988459;28;20540;-81
2022/11/18 05:26:09;;;;;;;19.83;11.60;;;;;;;;;;4986895;28;20039;-80
2022/11/18 05:28:34;;;;;;;18.25;12.25;;;;;;;;;;4986127;28;20141;-81
2022/11/18 05:31:05;;;;;;;19.67;12.45;;;;;;;;;;4992206;28;20045;-81
2022/11/18 05:33:30;;;;;;;20.00;12.60;;;;;;;7.89;100.00;67651.28;4981423;28;20031;-82
2022/11/18 05:35:55;;;;;;;22.08;13.65;;;;;;;;;;4985961;28;20119;-82
2022/11/18 05:38:21;;;;;;;18.70;13.52;;;;;;;7.82;100.00;67646.00;4982951;28;20034;-81
2022/11/18 05:40:46;;;;;;;21.45;13.50;;;;;;;7.80;100.00;67640.56;4979410;28;20649;-81
2022/11/18 05:43:11;;;;;;;23.15;14.27;;;;;;;7.78;100.00;67638.84;4989069;28;20446;-81
2022/11/18 05:45:37;;;;;;;20.02;12.98;;;;;;;;;;4986009;28;20042;-82
2022/11/18 05:48:03;;;;;;;23.77;14.93;;;;;;;;;;4990186;28;20042;-83
2022/11/18 05:50:32;;;;;;;18.48;13.07;;;;;;;;;;4989425;28;20046;-81
2022/11/18 05:52:57;;;;;;;22.88;15.07;;;;;;;7.73;100.00;67627.88;4987269;28;20050;-82
2022/11/18 05:55:27;;;;;;;25.15;13.55;;;;;;;7.72;100.00;67632.06;4981354;28;20097;-82
2022/11/18 05:57:53;;;;;;;22.45;14.05;;;;;;;7.74;100.00;67636.38;4989462;28;20041;-82
2022/11/18 06:00:18;;;;;;;23.45;14.50;;;;;;;7.75;100.00;67629.59;4987240;28;20042;-81
2022/11/18 06:02:48;;;;;;;20.55;14.25;;;;;;;7.75;100.00;67634.88;4988874;28;20504;-83
2022/11/18 06:05:14;;;;;;;;;;;;;;;7.76;100.00;67638.66;4985299;28;20074;-82
2022/11/18 06:07:44;;;;;;;24.02;15.27;;;;;;;7.69;100.00;67628.66;4986769;28;19964;-81
2022/11/18 06:10:24;;;;;;;25.50;15.98;;;;;;;7.68;100.00;67630.16;4987893;28;20676;-81
2022/11/18 06:12:51;;;;;;;24.35;14.35;;;;;;;;;;4989007;28;20458;-81
2022/11/18 06:15:27;;;;;;;22.55;15.20;;;;;;;7.69;100.00;67628.66;4985896;28;20066;-82
2022/11/18 06:18:01;;;;;;;24.05;14.73;;;;;;;7.70;100.00;67624.47;5002384;28;20456;-82
2022/11/18 06:20:26;;;;;;;26.63;16.05;;;;;;;;;;4986361;28;20046;-83
2022/11/18 06:22:54;;;;;;;26.35;16.13;;;;;;;7.71;100.00;67625.03;4990949;28;20065;-82
2022/11/18 06:25:20;;;;;;;26.57;17.47;;;;;;;;;;4990987;28;20106;-82
2022/11/18 06:27:47;;;;;;;22.50;16.10;;;;;;;7.71;100.00;67630.34;4988084;28;20648;-81
2022/11/18 06:30:13;;;;;;;24.02;15.98;;;;;;;7.69;100.00;67623.34;4993475;28;20094;-83
2022/11/18 06:32:38;;;;;;;22.52;14.70;;;;;;;;;;4992748;28;20046;-83
2022/11/18 06:35:04;;;;;;;23.45;17.10;;;;;;;7.71;100.00;67630.94;4991050;28;20077;-83
2022/11/18 06:37:29;;;;;;;26.08;16.23;;;;;;;;;;4992768;28;20052;-82
2022/11/18 06:39:55;;;;;;;27.83;16.83;;;;;;;;;;4989496;28;20117;-82
2022/11/18 06:45:04;;;;;;;27.27;16.70;;;;;;;;;;4989323;28;20048;-82
2022/11/18 06:47:29;;;;;;;23.30;15.52;;;;;;;7.72;100.00;67623.53;4992267;28;20498;-82
2022/11/18 06:49:55;;;;;;;24.02;16.85;;;;;;;7.74;100.00;67633.75;4988998;28;20066;-82
2022/11/18 06:52:21;;;;;;;25.33;15.88;;;;;;;7.74;100.00;67629.03;4990720;28;20042;-82
2022/11/18 06:54:47;;;;;;;22.67;14.85;;;;;;;7.76;100.00;67631.28;4991258;28;20038;-83
2022/11/18 06:57:12;;;;;;;27.15;17.45;;;;;;;7.76;100.00;67636.56;4989420;28;20054;-81
2022/11/18 06:59:38;;;;;;;22.70;15.27;;;;;;;7.78;100.00;67638.84;4991088;28;20047;-81
2022/11/18 07:02:03;;;;;;;29.65;15.52;;;;;;;;;;4992985;28;20054;-83
2022/11/18 07:04:28;;;;;;;27.10;16.07;;;;;;;;;;5004305;28;20041;-82
2022/11/18 07:06:53;;;;;;;26.23;17.88;;;;;;;;;;4998647;28;20284;-83
2022/11/18 07:09:19;;;;;;;24.08;17.05;;;;;;;7.83;100.00;67644.50;4992481;28;20046;-81
2022/11/18 07:11:44;;;;;;;25.83;17.55;;;;;;;7.84;100.00;67645.63;4993066;28;20089;-81
2022/11/18 07:14:10;;;;;;;24.38;16.35;;;;;;;7.85;100.00;67641.47;4991897;28;20093;-81
2022/11/18 07:16:35;;;;;;;26.63;17.55;;;;;;;7.86;100.00;67642.03;4991745;28;20081;-82
2022/11/18 07:19:10;;;;;;;26.58;17.58;;;;;;;7.87;100.00;67651.69;4991680;28;20042;-83
2022/11/18 07:21:35;;;;;;;31.65;16.88;;;;;;;7.87;100.00;67640.50;4991314;28;20710;-81
2022/11/18 07:24:03;;;;;;;29.42;17.50;;;;;;;;;;4991594;28;20038;-82
2022/11/18 07:26:29;;;;;;;26.27;17.05;;;;;;;7.90;100.00;67652.41;4989524;28;20047;-81
2022/11/18 07:28:54;;;;;;;29.48;17.92;;;;;;;;;;4986728;28;20054;-81
2022/11/18 07:31:19;;;;;;;29.52;18.70;;;;;;;;;;4985744;28;20046;-81
2022/11/18 07:33:45;;;;;;;26.90;17.30;;;;;;;;;;4986513;28;20632;-81
2022/11/18 07:36:14;;;;;;;28.65;18.08;;;;;;;7.89;100.00;67646.00;4990371;28;20042;-82
2022/11/18 07:38:40;;;;;;;29.92;17.77;;;;;;;7.87;100.00;67641.06;4993262;28;20049;-81
2022/11/18 07:41:07;;;;;;;24.85;17.23;;;;;;;;;;4991160;28;20685;-82
2022/11/18 07:43:34;;;;;;;30.63;18.58;;;;;;;7.84;100.00;67645.63;4991438;28;20490;-82
2022/11/18 07:46:20;;;;;;;23.77;18.48;;;;;;;7.86;100.00;67647.91;5001522;28;21923;-82
2022/11/18 07:48:48;;;;;;;28.92;19.88;;;;;;;7.86;100.00;67642.59;5003399;28;20039;-82
2022/11/18 07:51:16;;;;;;;29.98;17.77;;;;;;;7.87;100.00;67643.72;4991361;28;20042;-81
2022/11/18 07:53:42;;;;;;;28.52;18.73;;;;;;;7.89;100.00;67650.72;4991986;28;20069;-81
2022/11/18 07:56:08;;;;;;;27.83;20.30;;;;;;;7.90;100.00;67647.13;4991635;28;20046;-82
2022/11/18 07:58:35;;;;;;;31.60;20.08;;;;;;;7.94;100.00;67650.53;4992307;28;20035;-83
2022/11/18 08:01:17;;;;;;;30.17;20.17;;;;;;;7.94;100.00;67655.81;4992222;28;20038;-82
2022/11/18 08:03:43;;;;;;;34.65;20.70;;;;;;;7.97;100.00;67651.25;4993519;28;20049;-81
2022/11/18 08:06:09;;;;;;;33.72;20.77;;;;;;;7.99;100.00;67656.19;4991118;28;20046;-82
2022/11/18 08:08:35;;;;;;;32.63;21.15;;;;;;;;;;4991056;28;20049;-83
2022/11/18 08:11:03;;;;;;;32.78;20.48;;;;;;;8.02;100.00;67659.56;4991665;28;20046;-82
2022/11/18 08:13:29;;;;;;;33.38;20.35;;;;;;;;;;4992193;28;20042;-82
2022/11/18 08:15:55;;;;;;;31.20;20.80;;;;;;;8.07;100.00;67670.53;4991775;28;20057;-82
2022/11/18 08:18:21;;;;;;;32.58;21.92;;;;;;;8.10;100.00;67673.94;5002923;28;20053;-82
2022/11/18 08:20:47;;;;;;;31.80;21.83;;;;;;;8.11;100.00;67669.75;4993281;28;20096;-82
2022/11/18 08:23:14;;;;;;;30.52;20.08;;;;;;;8.12;100.00;67670.91;4991155;28;20034;-82
2022/11/18 08:25:39;;;;;;;35.05;20.63;;;;;;;;;;4992186;28;20073;-82
2022/11/18 08:28:05;;;;;;;36.28;21.92;;;;;;;;;;4992358;28;20070;-82
2022/11/18 08:30:31;;;;;;;34.65;21.48;;;;;;;;;;4993062;28;20043;-82
2022/11/18 08:32:56;;;;;;;30.10;20.35;;;;;;;;;;4992603;28;20100;-82
2022/11/18 08:35:22;;;;;;;31.33;20.38;;;;;;;;;;4992367;28;20039;-82
2022/11/18 08:37:47;;;;;;;29.30;19.33;;;;;;;8.20;100.00;67677.31;5003018;28;20042;-83
2022/11/18 08:40:12;;;;;;;30.67;21.50;;;;;;;8.23;100.00;67683.38;4993268;28;20046;-83
2022/11/18 08:42:37;;;;;;;29.20;20.33;;;;;;;;;;4993672;28;20510;-82
2022/11/18 08:45:09;;;;;;;30.95;21.90;;;;;;;;;;4992982;28;20035;-84
2022/11/18 08:47:34;;;;;;;30.83;20.75;;;;;;;;;;4994337;28;20161;-83
2022/11/18 08:50:01;;;;;;;39.92;21.50;;;;;;;8.31;100.00;67697.16;5002688;28;20049;-82
2022/11/18 08:52:26;;;;;;;35.45;22.83;;;;;;;;;;5002737;28;20129;-81
2022/11/18 08:54:51;;;;;;;33.20;20.67;;;;;;;;;;5003213;28;20046;-83
2022/11/18 08:57:17;;;;;;;31.38;21.80;;;;;;;8.43;100.00;67704.91;5002364;28;20054;-83
2022/11/18 08:59:42;;;;;;;32.40;21.85;;;;;;;;;;5004556;28;20042;-83
2022/11/18 09:02:21;;;;;;;30.70;19.27;;;;;;;;;;5012294;28;20075;-83
2022/11/18 09:04:47;;;;;;;27.95;18.33;;;;;;;8.58;100.00;67727.78;4999859;28;20042;-82
2022/11/18 09:07:13;;;;;;;30.30;19.58;;;;;;;8.62;100.00;67731.72;5011545;28;20041;-83
2022/11/18 09:09:38;;;;;;;29.95;21.30;;;;;;;;;;4999076;28;20046;-82
2022/11/18 09:12:04;;;;;;;28.70;18.77;;;;;;;8.72;100.00;67743.06;4996153;28;20043;-83
2022/11/18 09:14:29;;;;;;;20.55;15.40;;;;;;;8.68;100.00;67732.66;4997003;28;20046;-83
2022/11/18 09:16:55;;;;;;;31.92;18.23;;;;;;;;;;4989790;28;20046;-83
2022/11/18 09:19:20;;;;;;;25.08;15.93;;;;;;;;;;4990808;28;20038;-84
2022/11/18 09:21:45;;;;;;;28.95;15.40;;;;;;;8.75;100.00;67746.47;4990660;28;20073;-82
2022/11/18 09:24:11;;;;;;;22.60;14.55;;;;;;;8.77;100.00;67743.41;4991048;28;20046;-83
2022/11/18 09:26:36;;;;;;;21.10;15.73;;;;;;;8.81;100.00;67747.41;4990609;28;20512;-82
2022/11/18 09:29:02;;;;;;;25.13;14.77;;;;;;;8.85;100.00;67751.34;4989177;28;20073;-82
2022/11/18 09:31:28;;;;;;;24.27;13.93;;;;;;;8.82;100.00;67757.03;4989562;28;20045;-82
2022/11/18 09:33:53;;;;;;;23.75;15.45;;;;;;;;;;4982070;28;20424;-82
2022/11/18 09:36:23;;;;;;;27.45;17.70;;;;;;;8.98;100.00;67766.09;4992922;28;20042;-82
2022/11/18 09:38:49;;;;;;;23.02;15.65;;;;;;;9.01;100.00;67766.84;5001805;28;20045;-82
2022/11/18 09:41:33;;;;;;;25.45;15.75;;;;;;;9.01;100.00;67778.03;4990465;28;20125;-82
2022/11/18 09:44:16;;;;;;;23.27;15.27;;;;;;;9.03;100.00;67772.31;4989726;28;20053;-82
2022/11/18 09:47:00;;;;;;;19.83;14.18;;;;;;;;;;4989398;28;20041;-83
2022/11/18 09:49:30;;;;;;;20.75;13.38;;;;;;;9.06;100.00;67775.13;4988095;28;20077;-83
2022/11/18 09:52:00;;;;;;;19.25;12.27;;;;;;;9.04;100.00;67772.88;4990080;28;20039;-82
2022/11/18 09:54:30;;;;;;;19.58;11.40;;;;;;;9.12;100.00;67786.69;4989161;28;20073;-83
2022/11/18 09:56:56;;;;;;;16.98;10.73;;;;;;;;;;4989582;28;20035;-83
2022/11/18 09:59:23;;;;;;;19.38;12.55;;;;;;;;;;4988953;28;20137;-83
2022/11/18 10:01:51;;;;;;;15.18;11.27;;;;;;;9.21;100.00;67796.91;4987760;28;20038;-83
2022/11/18 10:04:18;;;;;;;18.85;11.32;;;;;;;9.23;100.00;67794.41;4983431;28;20038;-82
2022/11/18 10:06:45;;;;;;;20.65;11.02;;;;;;;9.32;100.00;67809.38;4988419;28;20042;-82
2022/11/18 10:09:24;;;;;;;17.20;10.93;;;;;;;9.43;100.00;67821.25;4988489;28;20113;-83
2022/11/18 10:11:55;;;;;;;15.40;10.65;;;;;;;9.44;100.00;67817.66;4989170;28;20501;-82
2022/11/18 10:14:27;;;;;;;15.63;11.25;;;;;;;9.43;100.00;67821.25;4984005;28;20101;-83
2022/11/18 10:17:05;;;;;;;14.85;10.98;;;;;;;;;;4985437;28;20045;-83
2022/11/18 10:19:37;;;;;;;16.27;10.45;;;;;;;;;;4988510;28;20085;-82
2022/11/18 10:22:14;;;;;;;15.40;10.02;;;;;;;;;;4987940;28;20038;-83
2022/11/18 10:24:44;;;;;;;20.10;11.73;;;;;;;;;;4992049;28;20045;-82
2022/11/18 10:27:13;;;;;;;18.10;10.27;;;;;;;9.43;100.00;67821.81;4992385;28;20065;-84
2022/11/18 10:29:39;;;;;;;17.65;10.75;;;;;;;9.52;100.00;67825.59;4991335;28;20113;-83
2022/11/18 10:32:12;;;;;;;13.13;8.90;;;;;;;9.54;100.00;67825.75;4991771;28;20114;-83
2022/11/18 10:34:50;;;;;;;15.43;9.95;;;;;;;9.60;100.00;67832.56;4989638;28;20034;-83
2022/11/18 10:37:29;;;;;;;10.73;9.05;;;;;;;;;;4988006;28;20049;-83
2022/11/18 10:39:57;;;;;;;13.88;8.93;;;;;;;9.59;100.00;67838.84;4990569;28;20041;-83
2022/11/18 10:42:39;;;;;;;14.73;9.38;;;;;;;9.65;100.00;67845.66;4991352;28;20109;-84
2022/11/18 10:45:29;;;;;;;13.02;8.50;;;;;;;9.66;100.00;67842.03;4971580;28;20047;-83
2022/11/18 10:48:15;;;;;;;11.50;8.05;;;;;;;9.63;100.00;67843.38;4989281;28;20076;-83
2022/11/18 10:50:43;;;;;;;12.27;8.45;;;;;;;9.64;100.00;67839.78;4989801;28;20096;-83
2022/11/18 10:53:31;;;;;;;11.95;8.75;;;;;;;9.68;100.00;67844.28;4989053;28;20049;-83
2022/11/18 10:56:00;;;;;;;9.93;7.40;;;;;;;9.63;100.00;67838.63;4985349;28;20085;-83
2022/11/18 10:58:27;;;;;;;;;;;;;;;9.66;100.00;67842.03;4988365;28;20046;-83
2022/11/18 11:01:04;;;;;;;11.25;7.47;;;;;;;9.63;100.00;67838.06;4988451;28;19913;-83
2022/11/18 11:03:36;;;;;;;11.73;6.50;;;;;;;9.61;100.00;67835.78;4989751;28;20547;-84
2022/11/18 11:06:22;;;;;;;15.52;7.22;;;;;;;9.71;100.00;67853.00;4989207;28;20410;-83
2022/11/18 11:08:48;;;;;;;10.80;6.20;;;;;;;;;;5002226;28;20053;-82
2022/11/18 11:11:27;;;;;;;12.25;8.38;;;;;;;9.91;100.00;67869.25;4992771;28;20088;-83
2022/11/18 11:13:54;;;;;;;10.55;7.40;;;;;;;;;;4991193;28;20042;-83
2022/11/18 11:16:20;;;;;;;10.52;6.75;;;;;;;10.03;100.00;67880.19;4992559;28;20043;-83
2022/11/18 11:18:54;;;;;;;11.95;7.35;;;;;;;10.00;100.00;67876.22;4991189;28;20042;-83
2022/11/18 11:21:24;;;;;;;12.00;7.45;;;;;;;10.08;100.00;67888.53;4982562;28;20050;-82
2022/11/18 11:23:50;;;;;;;11.82;7.38;;;;;;;10.08;100.00;67887.97;4995433;28;20052;-83
2022/11/18 11:26:41;;;;;;;12.50;7.15;;;;;;;;;;4995721;28;20101;-83
2022/11/18 11:29:31;;;;;;;13.27;7.10;;;;;;;10.25;100.00;67906.69;5005620;28;20132;-84
2022/11/18 11:32:14;;;;;;;12.27;6.93;;;;;;;10.45;100.00;67929.41;4991956;28;20403;-84
2022/11/18 11:34:42;;;;;;;8.50;6.93;;;;;;;;;;4991764;28;20070;-83
2022/11/18 11:37:39;;;;;;;15.67;6.90;;;;;;;10.82;100.00;67967.59;4992192;28;20043;-83
2022/11/18 11:40:28;;;;;;;10.38;6.03;;;;;;;10.78;100.00;67966.25;4975880;28;20812;-83
2022/11/18 11:43:14;;;;;;;10.38;6.78;;;;;;;10.75;100.00;67962.28;4998198;28;20045;-83
2022/11/18 11:45:58;;;;;;;10.45;6.57;;;;;;;10.75;100.00;67962.88;4991436;28;20038;-83
2022/11/18 11:48:30;;;;;;;9.48;6.55;;;;;;;10.75;100.00;67962.88;4986676;28;20054;-83
2022/11/18 11:51:05;;;;;;;11.35;6.40;;;;;;;10.55;100.00;67940.16;4990669;28;20050;-83
2022/11/18 11:53:56;;;;;;;11.35;6.82;;;;;;;10.39;100.00;67917.84;4993214;28;20069;-83
2022/11/18 11:56:49;;;;;;;9.45;6.78;;;;;;;10.35;100.00;67918.59;4993147;28;20100;-83
2022/11/18 11:59:18;;;;;;;13.13;7.03;;;;;;;;;;4988624;28;20039;-83
2022/11/18 12:01:45;;;;;;;12.07;7.05;;;;;;;;;;4992179;28;20038;-83
2022/11/18 12:04:22;;;;;;;10.25;7.40;;;;;;;10.33;100.00;67915.78;4992964;28;20054;-83
2022/11/18 12:06:50;;;;;;;12.52;7.97;;;;;;;;;;4993155;28;20457;-84
2022/11/18 12:09:35;;;;;;;14.02;8.10;;;;;;;;;;4991183;28;20054;-83
2022/11/18 12:12:03;;;;;;;12.10;8.70;;;;;;;10.27;100.00;67908.97;4990757;28;20060;-82
2022/11/18 12:14:52;;;;;;;11.38;8.52;;;;;;;10.26;100.00;67907.81;4992060;28;20042;-83
2022/11/18 12:17:31;;;;;;;12.63;8.80;;;;;;;10.29;100.00;67911.81;4986258;28;20050;-84
2022/11/18 12:19:56;;;;;;;11.57;8.93;;;;;;;10.30;100.00;67917.69;4990202;28;20118;-83
2022/11/18 12:22:21;;;;;;;10.05;8.43;;;;;;;10.28;100.00;67910.66;4995071;28;20137;-83
2022/11/18 12:24:47;;;;;;;11.95;8.27;;;;;;;;;;4989181;28;21035;-83
2022/11/18 12:27:28;;;;;;;13.30;9.05;;;;;;;10.24;100.00;67910.84;4993871;28;20509;-83
2022/11/18 12:30:00;;;;;;;15.40;8.85;;;;;;;10.22;100.00;67903.28;4990807;28;20617;-83
2022/11/18 12:32:25;;;;;;;13.52;9.82;;;;;;;;;;4991621;28;20038;-83
2022/11/18 12:34:59;;;;;;;12.67;8.60;;;;;;;;;;4994028;28;20099;-84
2022/11/18 12:37:25;;;;;;;10.02;8.80;;;;;;;;;;4995542;28;20369;-84
2022/11/18 12:39:59;;;;;;;13.88;9.40;;;;;;;10.27;100.00;67909.53;4990987;28;20129;-83
2022/11/18 12:45:41;;;;;;;11.38;9.52;;;;;;;10.28;100.00;67910.66;4986320;28;20054;-83
2022/11/18 12:48:34;;;;;;;15.70;9.70;;;;;;;10.25;100.00;67912.00;4991405;28;20114;-83
2022/11/18 12:51:14;;;;;;;15.30;10.15;;;;;;;;;;4991902;28;20093;-83